Roanoke, Texas
Current Conditions -  °F | °C
As of 9:53 PM on Friday 24 Oct 2014 (Local Time) from KAFW Reporting Station
Clear Clear  
Wind Chill: 71°   Ceiling: Unl
Heat Index: 71°   Visibility: 10mi
Dew Point: 60°   Wind: 7mph
Humidity: 68%   Direction: 170°S
Pressure: 30.08"   Gusts: NA
Location:  33°N, 97.23°W
Report Text: KAFW 250253Z 17006KT 10SM CLR 22/16 A3008 RMK AO2 SLP178 T02170156 51010
Loading
Personal Weather Stations






























Interactive Weather Map
Tropical Storm Tracking
New forecast layout! Learn more

10-Day Weather Forecast

Advertisements
Track Severe Weather on mobile